Aviation Digital Data Service (ADDS)

Output produced by METARs form (2104 UTC 21 October 2017)
found at http://aviationweather.gov/adds/metars/
 
KATL 211950Z 2120/2224 11006KT P6SM FEW040 BKN250 
     FM220800 10004KT P6SM SCT030 BKN250 
     FM221000 10005KT P6SM SCT015 BKN025 
     FM221400 10008KT P6SM SCT025 BKN040 
     FM221600 11010G20KT P6SM BKN040